Terminal Aerodrome Forecast
Issued by NWS

Home | Current Version | Previous Version | Text Only | Print | Product List | Glossary On
Versions: 1 2 3 4 5 6 7 8 9 10 11 12 13 14 15 16 17
000
FTUS41 KGYX 211720
TAFHIE
TAF
KHIE 211720Z 2118/2218 04004KT 6SM -RA BKN030 OVC050
     FM212200 05008KT 4SM -RA BR OVC020
     FM220700 08005KT 1 1/2SM -RA BR OVC005=

USA.gov is the U.S. government's official web portal to all federal, state and local government web resources and services.